sensor_id;sensor_type;location;lat;lon;timestamp;temperature;humidity
7155;DHT22;3619;53.784;10.440;2024-03-02T00:00:52;8.50;99.90
7155;DHT22;3619;53.784;10.440;2024-03-02T00:03:20;8.50;99.90
7155;DHT22;3619;53.784;10.440;2024-03-02T00:05:50;8.40;99.90
7155;DHT22;3619;53.784;10.440;2024-03-02T00:08:25;8.40;99.90
7155;DHT22;3619;53.784;10.440;2024-03-02T00:10:57;8.40;99.90
7155;DHT22;3619;53.784;10.440;2024-03-02T00:13:27;8.40;99.90
7155;DHT22;3619;53.784;10.440;2024-03-02T00:15:59;8.40;99.90
7155;DHT22;3619;53.784;10.440;2024-03-02T00:18:31;8.40;99.90
7155;DHT22;3619;53.784;10.440;2024-03-02T00:31:30;8.40;99.90
7155;DHT22;3619;53.784;10.440;2024-03-02T00:34:04;8.40;99.90
7155;DHT22;3619;53.784;10.440;2024-03-02T00:39:12;8.30;99.90
7155;DHT22;3619;53.784;10.440;2024-03-02T00:41:41;8.20;99.90
7155;DHT22;3619;53.784;10.440;2024-03-02T00:44:15;8.30;99.90
7155;DHT22;3619;53.784;10.440;2024-03-02T00:46:47;8.20;99.90
7155;DHT22;3619;53.784;10.440;2024-03-02T00:49:18;8.20;99.90
7155;DHT22;3619;53.784;10.440;2024-03-02T00:51:48;8.20;99.90
7155;DHT22;3619;53.784;10.440;2024-03-02T00:54:19;8.20;99.90
7155;DHT22;3619;53.784;10.440;2024-03-02T00:56:47;8.20;99.90
7155;DHT22;3619;53.784;10.440;2024-03-02T00:59:15;8.20;99.90
7155;DHT22;3619;53.784;10.440;2024-03-02T01:01:42;8.20;99.90
7155;DHT22;3619;53.784;10.440;2024-03-02T01:04:11;8.20;99.90
7155;DHT22;3619;53.784;10.440;2024-03-02T01:06:41;8.20;99.90
7155;DHT22;3619;53.784;10.440;2024-03-02T01:09:11;8.20;99.90
7155;DHT22;3619;53.784;10.440;2024-03-02T01:11:39;8.20;99.90
7155;DHT22;3619;53.784;10.440;2024-03-02T01:14:06;8.10;99.90
7155;DHT22;3619;53.784;10.440;2024-03-02T01:16:33;8.10;99.90
7155;DHT22;3619;53.784;10.440;2024-03-02T01:19:00;8.00;99.90
7155;DHT22;3619;53.784;10.440;2024-03-02T01:21:28;8.10;99.90
7155;DHT22;3619;53.784;10.440;2024-03-02T01:23:56;8.00;99.90
7155;DHT22;3619;53.784;10.440;2024-03-02T01:26:23;8.00;99.90
7155;DHT22;3619;53.784;10.440;2024-03-02T01:28:50;8.00;99.90
7155;DHT22;3619;53.784;10.440;2024-03-02T01:31:17;8.00;99.90
7155;DHT22;3619;53.784;10.440;2024-03-02T01:33:45;8.00;99.90
7155;DHT22;3619;53.784;10.440;2024-03-02T01:36:13;8.00;99.90
7155;DHT22;3619;53.784;10.440;2024-03-02T01:38:41;8.00;99.90
7155;DHT22;3619;53.784;10.440;2024-03-02T01:41:08;8.00;99.90
7155;DHT22;3619;53.784;10.440;2024-03-02T01:43:36;8.00;99.90
7155;DHT22;3619;53.784;10.440;2024-03-02T01:46:05;7.90;99.90
7155;DHT22;3619;53.784;10.440;2024-03-02T01:48:35;7.90;99.90
7155;DHT22;3619;53.784;10.440;2024-03-02T01:51:03;8.00;99.90
7155;DHT22;3619;53.784;10.440;2024-03-02T01:53:32;8.00;99.90
7155;DHT22;3619;53.784;10.440;2024-03-02T01:56:03;7.90;99.90
7155;DHT22;3619;53.784;10.440;2024-03-02T01:58:31;7.80;99.90
7155;DHT22;3619;53.784;10.440;2024-03-02T02:00:58;7.80;99.90
7155;DHT22;3619;53.784;10.440;2024-03-02T02:03:25;7.90;99.90
7155;DHT22;3619;53.784;10.440;2024-03-02T02:05:55;7.90;99.90
7155;DHT22;3619;53.784;10.440;2024-03-02T02:08:22;7.80;99.90
7155;DHT22;3619;53.784;10.440;2024-03-02T02:10:52;7.80;99.90
7155;DHT22;3619;53.784;10.440;2024-03-02T02:13:22;7.90;99.90
7155;DHT22;3619;53.784;10.440;2024-03-02T02:15:49;7.80;99.90
7155;DHT22;3619;53.784;10.440;2024-03-02T02:18:18;7.80;99.90
7155;DHT22;3619;53.784;10.440;2024-03-02T02:20:45;7.80;99.90
7155;DHT22;3619;53.784;10.440;2024-03-02T02:23:14;7.80;99.90
7155;DHT22;3619;53.784;10.440;2024-03-02T02:25:41;7.80;99.90
7155;DHT22;3619;53.784;10.440;2024-03-02T02:28:08;7.70;99.90
7155;DHT22;3619;53.784;10.440;2024-03-02T02:30:35;7.90;99.90
7155;DHT22;3619;53.784;10.440;2024-03-02T02:33:03;7.80;99.90
7155;DHT22;3619;53.784;10.440;2024-03-02T02:35:30;7.80;99.90
7155;DHT22;3619;53.784;10.440;2024-03-02T02:37:58;7.80;99.90
7155;DHT22;3619;53.784;10.440;2024-03-02T02:40:27;7.80;99.90
7155;DHT22;3619;53.784;10.440;2024-03-02T02:42:56;7.70;99.90
7155;DHT22;3619;53.784;10.440;2024-03-02T02:45:24;7.80;99.90
7155;DHT22;3619;53.784;10.440;2024-03-02T02:47:53;7.70;99.90
7155;DHT22;3619;53.784;10.440;2024-03-02T03:00:46;7.50;99.90
7155;DHT22;3619;53.784;10.440;2024-03-02T03:03:13;7.60;99.90
7155;DHT22;3619;53.784;10.440;2024-03-02T03:05:42;7.50;99.90
7155;DHT22;3619;53.784;10.440;2024-03-02T03:08:09;7.40;99.90
7155;DHT22;3619;53.784;10.440;2024-03-02T03:10:39;7.50;99.90
7155;DHT22;3619;53.784;10.440;2024-03-02T03:13:06;7.40;99.90
7155;DHT22;3619;53.784;10.440;2024-03-02T03:15:37;7.50;99.90
7155;DHT22;3619;53.784;10.440;2024-03-02T03:18:11;7.60;99.90
7155;DHT22;3619;53.784;10.440;2024-03-02T03:20:38;7.60;99.90
7155;DHT22;3619;53.784;10.440;2024-03-02T03:23:05;7.60;99.90
7155;DHT22;3619;53.784;10.440;2024-03-02T03:25:40;7.60;99.90
7155;DHT22;3619;53.784;10.440;2024-03-02T03:28:08;7.60;99.90
7155;DHT22;3619;53.784;10.440;2024-03-02T03:30:37;7.60;99.90
7155;DHT22;3619;53.784;10.440;2024-03-02T03:33:05;7.60;99.90
7155;DHT22;3619;53.784;10.440;2024-03-02T03:35:36;7.60;99.90
7155;DHT22;3619;53.784;10.440;2024-03-02T03:38:09;7.60;99.90
7155;DHT22;3619;53.784;10.440;2024-03-02T03:40:39;7.60;99.90
7155;DHT22;3619;53.784;10.440;2024-03-02T03:43:06;7.60;99.90
7155;DHT22;3619;53.784;10.440;2024-03-02T03:45:35;7.50;99.90
7155;DHT22;3619;53.784;10.440;2024-03-02T03:48:03;7.50;99.90
7155;DHT22;3619;53.784;10.440;2024-03-02T03:50:30;7.40;99.90
7155;DHT22;3619;53.784;10.440;2024-03-02T03:52:59;7.50;99.90
7155;DHT22;3619;53.784;10.440;2024-03-02T03:55:26;7.50;99.90
7155;DHT22;3619;53.784;10.440;2024-03-02T03:57:55;7.50;99.90
7155;DHT22;3619;53.784;10.440;2024-03-02T04:00:22;7.50;99.90
7155;DHT22;3619;53.784;10.440;2024-03-02T04:02:49;7.40;99.90
7155;DHT22;3619;53.784;10.440;2024-03-02T04:05:16;7.50;99.90
7155;DHT22;3619;53.784;10.440;2024-03-02T04:07:45;7.50;99.90
7155;DHT22;3619;53.784;10.440;2024-03-02T04:10:13;7.50;99.90
7155;DHT22;3619;53.784;10.440;2024-03-02T04:12:42;7.40;99.90
7155;DHT22;3619;53.784;10.440;2024-03-02T04:15:09;7.40;99.90
7155;DHT22;3619;53.784;10.440;2024-03-02T04:17:39;7.40;99.90
7155;DHT22;3619;53.784;10.440;2024-03-02T04:20:10;7.40;99.90
7155;DHT22;3619;53.784;10.440;2024-03-02T04:22:38;7.40;99.90
7155;DHT22;3619;53.784;10.440;2024-03-02T04:25:05;7.40;99.90
7155;DHT22;3619;53.784;10.440;2024-03-02T04:27:34;7.40;99.90
7155;DHT22;3619;53.784;10.440;2024-03-02T04:30:02;7.30;99.90
7155;DHT22;3619;53.784;10.440;2024-03-02T04:42:51;7.40;99.90
7155;DHT22;3619;53.784;10.440;2024-03-02T04:45:21;7.40;99.90
7155;DHT22;3619;53.784;10.440;2024-03-02T04:50:27;7.40;99.90
7155;DHT22;3619;53.784;10.440;2024-03-02T04:52:55;7.40;99.90
7155;DHT22;3619;53.784;10.440;2024-03-02T04:55:22;7.40;99.90
7155;DHT22;3619;53.784;10.440;2024-03-02T05:12:03;7.20;99.90
7155;DHT22;3619;53.784;10.440;2024-03-02T05:14:54;7.20;99.90
7155;DHT22;3619;53.784;10.440;2024-03-02T05:17:25;7.10;99.90
7155;DHT22;3619;53.784;10.440;2024-03-02T05:19:52;7.20;99.90
7155;DHT22;3619;53.784;10.440;2024-03-02T05:22:20;7.20;99.90
7155;DHT22;3619;53.784;10.440;2024-03-02T05:24:47;7.20;99.90
7155;DHT22;3619;53.784;10.440;2024-03-02T05:27:15;7.20;99.90
7155;DHT22;3619;53.784;10.440;2024-03-02T05:29:42;7.20;99.90
7155;DHT22;3619;53.784;10.440;2024-03-02T05:32:09;7.20;99.90
7155;DHT22;3619;53.784;10.440;2024-03-02T05:34:36;7.20;99.90
7155;DHT22;3619;53.784;10.440;2024-03-02T05:37:06;7.20;99.90
7155;DHT22;3619;53.784;10.440;2024-03-02T05:39:34;7.20;99.90
7155;DHT22;3619;53.784;10.440;2024-03-02T05:42:01;7.20;99.90
7155;DHT22;3619;53.784;10.440;2024-03-02T05:44:30;7.30;99.90
7155;DHT22;3619;53.784;10.440;2024-03-02T05:46:57;7.20;99.90
7155;DHT22;3619;53.784;10.440;2024-03-02T05:49:24;7.20;99.90
7155;DHT22;3619;53.784;10.440;2024-03-02T05:51:51;7.20;99.90
7155;DHT22;3619;53.784;10.440;2024-03-02T05:54:19;7.20;99.90
7155;DHT22;3619;53.784;10.440;2024-03-02T05:56:46;7.20;99.90
7155;DHT22;3619;53.784;10.440;2024-03-02T05:59:13;7.20;99.90
7155;DHT22;3619;53.784;10.440;2024-03-02T06:01:45;7.20;99.90
7155;DHT22;3619;53.784;10.440;2024-03-02T06:04:14;7.30;99.90
7155;DHT22;3619;53.784;10.440;2024-03-02T06:06:43;7.20;99.90
7155;DHT22;3619;53.784;10.440;2024-03-02T06:09:15;7.20;99.90
7155;DHT22;3619;53.784;10.440;2024-03-02T06:11:42;7.10;99.90
7155;DHT22;3619;53.784;10.440;2024-03-02T06:14:09;7.20;99.90
7155;DHT22;3619;53.784;10.440;2024-03-02T06:16:39;7.20;99.90
7155;DHT22;3619;53.784;10.440;2024-03-02T06:19:08;7.30;99.90
7155;DHT22;3619;53.784;10.440;2024-03-02T06:21:35;7.10;99.90
7155;DHT22;3619;53.784;10.440;2024-03-02T06:26:37;7.20;99.90
7155;DHT22;3619;53.784;10.440;2024-03-02T06:29:05;7.20;99.90
7155;DHT22;3619;53.784;10.440;2024-03-02T06:31:33;7.20;99.90
7155;DHT22;3619;53.784;10.440;2024-03-02T06:34:03;7.20;99.90
7155;DHT22;3619;53.784;10.440;2024-03-02T06:36:34;7.20;99.90
7155;DHT22;3619;53.784;10.440;2024-03-02T06:39:11;7.20;99.90
7155;DHT22;3619;53.784;10.440;2024-03-02T06:41:43;7.20;99.90
7155;DHT22;3619;53.784;10.440;2024-03-02T06:44:13;7.30;99.90
7155;DHT22;3619;53.784;10.440;2024-03-02T06:46:42;7.30;99.90
7155;DHT22;3619;53.784;10.440;2024-03-02T06:49:18;7.30;99.90
7155;DHT22;3619;53.784;10.440;2024-03-02T06:51:46;7.30;99.90
7155;DHT22;3619;53.784;10.440;2024-03-02T06:54:24;7.20;99.90
7155;DHT22;3619;53.784;10.440;2024-03-02T06:56:54;7.20;99.90
7155;DHT22;3619;53.784;10.440;2024-03-02T06:59:24;7.30;99.90
7155;DHT22;3619;53.784;10.440;2024-03-02T07:01:54;7.30;99.90
7155;DHT22;3619;53.784;10.440;2024-03-02T07:04:27;7.30;99.90
7155;DHT22;3619;53.784;10.440;2024-03-02T07:07:01;7.30;99.90
7155;DHT22;3619;53.784;10.440;2024-03-02T07:09:28;7.30;99.90
7155;DHT22;3619;53.784;10.440;2024-03-02T07:11:55;7.40;99.90
7155;DHT22;3619;53.784;10.440;2024-03-02T07:14:24;7.50;99.90
7155;DHT22;3619;53.784;10.440;2024-03-02T07:19:46;7.50;99.90
7155;DHT22;3619;53.784;10.440;2024-03-02T07:22:18;7.50;99.90
7155;DHT22;3619;53.784;10.440;2024-03-02T07:24:55;7.50;99.90
7155;DHT22;3619;53.784;10.440;2024-03-02T07:27:25;7.60;99.90
7155;DHT22;3619;53.784;10.440;2024-03-02T07:29:52;7.60;99.90
7155;DHT22;3619;53.784;10.440;2024-03-02T07:32:20;7.70;99.90
7155;DHT22;3619;53.784;10.440;2024-03-02T07:34:47;7.70;99.90
7155;DHT22;3619;53.784;10.440;2024-03-02T07:37:15;7.80;99.90
7155;DHT22;3619;53.784;10.440;2024-03-02T07:39:44;7.80;99.90
7155;DHT22;3619;53.784;10.440;2024-03-02T07:42:11;7.90;99.90
7155;DHT22;3619;53.784;10.440;2024-03-02T07:44:38;8.00;99.90
7155;DHT22;3619;53.784;10.440;2024-03-02T07:47:05;8.00;99.90
7155;DHT22;3619;53.784;10.440;2024-03-02T07:49:33;8.10;99.90
7155;DHT22;3619;53.784;10.440;2024-03-02T07:52:00;8.20;99.90
7155;DHT22;3619;53.784;10.440;2024-03-02T07:54:28;8.40;99.90
7155;DHT22;3619;53.784;10.440;2024-03-02T07:56:55;8.40;99.90
7155;DHT22;3619;53.784;10.440;2024-03-02T07:59:22;8.40;99.90
7155;DHT22;3619;53.784;10.440;2024-03-02T08:01:49;8.60;99.90
7155;DHT22;3619;53.784;10.440;2024-03-02T08:04:17;8.70;99.90
7155;DHT22;3619;53.784;10.440;2024-03-02T08:06:46;8.70;99.90
7155;DHT22;3619;53.784;10.440;2024-03-02T08:09:13;8.80;99.90
7155;DHT22;3619;53.784;10.440;2024-03-02T08:11:42;8.90;99.90
7155;DHT22;3619;53.784;10.440;2024-03-02T08:14:09;9.00;99.90
7155;DHT22;3619;53.784;10.440;2024-03-02T08:16:36;9.10;99.90
7155;DHT22;3619;53.784;10.440;2024-03-02T08:19:03;9.00;99.90
7155;DHT22;3619;53.784;10.440;2024-03-02T08:21:30;9.10;99.90
7155;DHT22;3619;53.784;10.440;2024-03-02T08:23:58;9.10;99.90
7155;DHT22;3619;53.784;10.440;2024-03-02T08:26:25;9.10;99.90
7155;DHT22;3619;53.784;10.440;2024-03-02T08:28:56;9.20;99.90
7155;DHT22;3619;53.784;10.440;2024-03-02T08:31:23;9.20;99.90
7155;DHT22;3619;53.784;10.440;2024-03-02T08:33:50;9.20;99.90
7155;DHT22;3619;53.784;10.440;2024-03-02T08:36:17;9.20;99.90
7155;DHT22;3619;53.784;10.440;2024-03-02T08:38:45;9.30;99.90
7155;DHT22;3619;53.784;10.440;2024-03-02T08:41:12;9.20;99.90
7155;DHT22;3619;53.784;10.440;2024-03-02T08:43:40;9.20;99.90
7155;DHT22;3619;53.784;10.440;2024-03-02T08:46:09;9.20;99.90
7155;DHT22;3619;53.784;10.440;2024-03-02T08:48:36;9.10;99.90
7155;DHT22;3619;53.784;10.440;2024-03-02T08:51:03;9.20;99.90
7155;DHT22;3619;53.784;10.440;2024-03-02T08:53:33;9.20;99.90
7155;DHT22;3619;53.784;10.440;2024-03-02T08:56:00;9.20;99.90
7155;DHT22;3619;53.784;10.440;2024-03-02T08:58:27;9.30;99.90
7155;DHT22;3619;53.784;10.440;2024-03-02T09:00:54;9.40;99.90
7155;DHT22;3619;53.784;10.440;2024-03-02T09:03:23;9.40;99.90
7155;DHT22;3619;53.784;10.440;2024-03-02T09:05:50;9.50;99.90
7155;DHT22;3619;53.784;10.440;2024-03-02T09:08:17;9.60;99.90
7155;DHT22;3619;53.784;10.440;2024-03-02T09:10:44;9.70;99.90
7155;DHT22;3619;53.784;10.440;2024-03-02T09:13:10;9.80;99.90
7155;DHT22;3619;53.784;10.440;2024-03-02T09:15:37;9.80;99.90
7155;DHT22;3619;53.784;10.440;2024-03-02T09:18:05;9.90;99.90
7155;DHT22;3619;53.784;10.440;2024-03-02T09:20:34;10.00;99.90
7155;DHT22;3619;53.784;10.440;2024-03-02T09:23:01;10.10;99.90
7155;DHT22;3619;53.784;10.440;2024-03-02T09:25:28;10.20;99.90
7155;DHT22;3619;53.784;10.440;2024-03-02T09:27:55;10.50;99.90
7155;DHT22;3619;53.784;10.440;2024-03-02T09:30:22;10.60;99.90
7155;DHT22;3619;53.784;10.440;2024-03-02T09:32:50;10.90;99.90
7155;DHT22;3619;53.784;10.440;2024-03-02T09:35:17;11.00;99.90
7155;DHT22;3619;53.784;10.440;2024-03-02T09:37:45;11.10;99.90
7155;DHT22;3619;53.784;10.440;2024-03-02T09:40:13;11.20;99.90
7155;DHT22;3619;53.784;10.440;2024-03-02T09:42:42;11.30;99.90
7155;DHT22;3619;53.784;10.440;2024-03-02T09:45:09;11.50;99.90
7155;DHT22;3619;53.784;10.440;2024-03-02T09:47:37;11.70;99.90
7155;DHT22;3619;53.784;10.440;2024-03-02T09:50:04;11.80;99.90
7155;DHT22;3619;53.784;10.440;2024-03-02T09:52:32;11.90;99.90
7155;DHT22;3619;53.784;10.440;2024-03-02T09:55:01;12.00;99.90
7155;DHT22;3619;53.784;10.440;2024-03-02T09:57:31;12.10;99.90
7155;DHT22;3619;53.784;10.440;2024-03-02T09:59:58;12.20;99.90
7155;DHT22;3619;53.784;10.440;2024-03-02T10:02:25;12.20;99.90
7155;DHT22;3619;53.784;10.440;2024-03-02T10:04:51;12.30;99.90
7155;DHT22;3619;53.784;10.440;2024-03-02T10:07:19;12.30;99.90
7155;DHT22;3619;53.784;10.440;2024-03-02T10:09:48;12.30;99.90
7155;DHT22;3619;53.784;10.440;2024-03-02T10:12:18;12.30;99.90
7155;DHT22;3619;53.784;10.440;2024-03-02T10:14:45;12.40;99.90
7155;DHT22;3619;53.784;10.440;2024-03-02T10:17:14;12.40;99.90
7155;DHT22;3619;53.784;10.440;2024-03-02T10:19:44;12.40;99.90
7155;DHT22;3619;53.784;10.440;2024-03-02T10:22:11;12.40;99.90
7155;DHT22;3619;53.784;10.440;2024-03-02T10:24:39;12.40;99.90
7155;DHT22;3619;53.784;10.440;2024-03-02T10:27:10;12.40;99.90
7155;DHT22;3619;53.784;10.440;2024-03-02T10:29:39;12.50;99.90
7155;DHT22;3619;53.784;10.440;2024-03-02T10:32:09;12.40;99.90
7155;DHT22;3619;53.784;10.440;2024-03-02T10:34:37;12.40;99.90
7155;DHT22;3619;53.784;10.440;2024-03-02T10:37:04;12.50;99.90
7155;DHT22;3619;53.784;10.440;2024-03-02T10:39:32;12.40;99.90
7155;DHT22;3619;53.784;10.440;2024-03-02T10:42:02;12.40;99.90
7155;DHT22;3619;53.784;10.440;2024-03-02T10:44:30;12.30;99.90
7155;DHT22;3619;53.784;10.440;2024-03-02T10:47:01;12.30;99.90
7155;DHT22;3619;53.784;10.440;2024-03-02T10:49:29;12.20;99.90
7155;DHT22;3619;53.784;10.440;2024-03-02T10:51:56;12.30;99.90
7155;DHT22;3619;53.784;10.440;2024-03-02T10:54:24;12.40;99.90
7155;DHT22;3619;53.784;10.440;2024-03-02T10:56:59;12.40;99.90
7155;DHT22;3619;53.784;10.440;2024-03-02T10:59:33;12.40;99.90
7155;DHT22;3619;53.784;10.440;2024-03-02T11:02:05;12.40;99.90
7155;DHT22;3619;53.784;10.440;2024-03-02T11:04:34;12.50;99.90
7155;DHT22;3619;53.784;10.440;2024-03-02T11:07:04;12.50;99.90
7155;DHT22;3619;53.784;10.440;2024-03-02T11:09:34;12.60;99.90
7155;DHT22;3619;53.784;10.440;2024-03-02T11:12:03;12.70;99.90
7155;DHT22;3619;53.784;10.440;2024-03-02T11:14:35;12.80;99.90
7155;DHT22;3619;53.784;10.440;2024-03-02T11:17:05;12.80;99.90
7155;DHT22;3619;53.784;10.440;2024-03-02T11:19:33;12.90;99.90
7155;DHT22;3619;53.784;10.440;2024-03-02T11:22:03;12.90;99.90
7155;DHT22;3619;53.784;10.440;2024-03-02T11:24:33;12.90;99.90
7155;DHT22;3619;53.784;10.440;2024-03-02T11:27:07;13.00;99.90
7155;DHT22;3619;53.784;10.440;2024-03-02T11:29:46;13.00;99.90
7155;DHT22;3619;53.784;10.440;2024-03-02T11:32:18;13.00;99.90
7155;DHT22;3619;53.784;10.440;2024-03-02T11:34:48;12.90;99.90
7155;DHT22;3619;53.784;10.440;2024-03-02T11:37:16;12.90;99.90
7155;DHT22;3619;53.784;10.440;2024-03-02T11:39:45;12.90;99.90
7155;DHT22;3619;53.784;10.440;2024-03-02T11:42:14;12.90;99.90
7155;DHT22;3619;53.784;10.440;2024-03-02T11:44:47;13.00;99.90
7155;DHT22;3619;53.784;10.440;2024-03-02T11:47:17;13.00;99.90
7155;DHT22;3619;53.784;10.440;2024-03-02T11:49:45;13.10;99.90
7155;DHT22;3619;53.784;10.440;2024-03-02T11:52:14;13.30;99.90
7155;DHT22;3619;53.784;10.440;2024-03-02T11:54:44;13.50;99.90
7155;DHT22;3619;53.784;10.440;2024-03-02T11:57:15;13.90;99.90
7155;DHT22;3619;53.784;10.440;2024-03-02T11:59:43;14.10;99.90
7155;DHT22;3619;53.784;10.440;2024-03-02T12:02:21;14.20;99.90
7155;DHT22;3619;53.784;10.440;2024-03-02T12:04:49;14.30;99.90
7155;DHT22;3619;53.784;10.440;2024-03-02T12:07:21;14.40;99.90
7155;DHT22;3619;53.784;10.440;2024-03-02T12:10:00;14.50;99.90
7155;DHT22;3619;53.784;10.440;2024-03-02T12:12:30;14.50;99.90
7155;DHT22;3619;53.784;10.440;2024-03-02T12:14:57;14.50;99.90
7155;DHT22;3619;53.784;10.440;2024-03-02T12:17:28;14.40;99.90
7155;DHT22;3619;53.784;10.440;2024-03-02T12:19:56;14.50;99.90
7155;DHT22;3619;53.784;10.440;2024-03-02T12:22:23;14.50;99.90
7155;DHT22;3619;53.784;10.440;2024-03-02T12:24:50;14.40;99.90
7155;DHT22;3619;53.784;10.440;2024-03-02T12:27:18;14.40;99.90
7155;DHT22;3619;53.784;10.440;2024-03-02T12:29:46;14.40;99.90
7155;DHT22;3619;53.784;10.440;2024-03-02T12:32:18;14.30;99.90
7155;DHT22;3619;53.784;10.440;2024-03-02T12:34:48;14.30;99.90
7155;DHT22;3619;53.784;10.440;2024-03-02T12:37:17;14.30;99.90
7155;DHT22;3619;53.784;10.440;2024-03-02T12:39:45;14.30;99.90
7155;DHT22;3619;53.784;10.440;2024-03-02T12:42:12;14.20;99.90
7155;DHT22;3619;53.784;10.440;2024-03-02T12:44:40;14.20;99.90
7155;DHT22;3619;53.784;10.440;2024-03-02T12:47:09;14.10;99.90
7155;DHT22;3619;53.784;10.440;2024-03-02T12:49:45;14.00;99.90
7155;DHT22;3619;53.784;10.440;2024-03-02T12:52:19;13.90;99.90
7155;DHT22;3619;53.784;10.440;2024-03-02T12:54:53;13.80;99.90
7155;DHT22;3619;53.784;10.440;2024-03-02T12:57:25;13.70;99.90
7155;DHT22;3619;53.784;10.440;2024-03-02T13:00:12;13.60;99.90
7155;DHT22;3619;53.784;10.440;2024-03-02T13:02:41;13.60;99.90
7155;DHT22;3619;53.784;10.440;2024-03-02T13:05:13;13.50;99.90
7155;DHT22;3619;53.784;10.440;2024-03-02T13:07:41;13.50;99.90
7155;DHT22;3619;53.784;10.440;2024-03-02T13:10:09;13.40;99.90
7155;DHT22;3619;53.784;10.440;2024-03-02T13:12:37;13.40;99.90
7155;DHT22;3619;53.784;10.440;2024-03-02T13:15:06;13.40;99.90
7155;DHT22;3619;53.784;10.440;2024-03-02T13:17:34;13.30;99.90
7155;DHT22;3619;53.784;10.440;2024-03-02T13:20:03;13.30;99.90
7155;DHT22;3619;53.784;10.440;2024-03-02T13:22:33;13.30;99.90
7155;DHT22;3619;53.784;10.440;2024-03-02T13:25:05;13.20;99.90
7155;DHT22;3619;53.784;10.440;2024-03-02T13:27:34;13.20;99.90
7155;DHT22;3619;53.784;10.440;2024-03-02T13:30:02;13.20;99.90
7155;DHT22;3619;53.784;10.440;2024-03-02T13:32:31;13.20;99.90
7155;DHT22;3619;53.784;10.440;2024-03-02T13:34:58;13.10;99.90
7155;DHT22;3619;53.784;10.440;2024-03-02T13:37:27;13.10;99.90
7155;DHT22;3619;53.784;10.440;2024-03-02T13:39:55;13.10;99.90
7155;DHT22;3619;53.784;10.440;2024-03-02T13:42:32;13.10;99.90
7155;DHT22;3619;53.784;10.440;2024-03-02T13:45:01;13.10;99.90
7155;DHT22;3619;53.784;10.440;2024-03-02T13:47:38;13.10;99.90
7155;DHT22;3619;53.784;10.440;2024-03-02T13:50:06;13.10;99.90
7155;DHT22;3619;53.784;10.440;2024-03-02T14:00:24;13.10;99.90
7155;DHT22;3619;53.784;10.440;2024-03-02T14:02:56;13.10;99.90
7155;DHT22;3619;53.784;10.440;2024-03-02T14:05:24;13.10;99.90
7155;DHT22;3619;53.784;10.440;2024-03-02T14:07:51;13.10;99.90
7155;DHT22;3619;53.784;10.440;2024-03-02T14:10:22;13.10;99.90
7155;DHT22;3619;53.784;10.440;2024-03-02T14:12:49;13.10;99.90
7155;DHT22;3619;53.784;10.440;2024-03-02T14:15:16;13.00;99.90
7155;DHT22;3619;53.784;10.440;2024-03-02T14:17:51;13.00;99.90
7155;DHT22;3619;53.784;10.440;2024-03-02T14:20:18;13.00;99.90
7155;DHT22;3619;53.784;10.440;2024-03-02T14:22:48;13.00;99.90
7155;DHT22;3619;53.784;10.440;2024-03-02T14:25:16;13.00;99.90
7155;DHT22;3619;53.784;10.440;2024-03-02T14:27:44;12.90;99.90
7155;DHT22;3619;53.784;10.440;2024-03-02T14:30:13;12.90;99.90
7155;DHT22;3619;53.784;10.440;2024-03-02T14:32:40;12.90;99.90
7155;DHT22;3619;53.784;10.440;2024-03-02T14:35:08;12.80;99.90
7155;DHT22;3619;53.784;10.440;2024-03-02T14:37:39;12.80;99.90
7155;DHT22;3619;53.784;10.440;2024-03-02T14:40:07;12.80;99.90
7155;DHT22;3619;53.784;10.440;2024-03-02T14:42:35;12.80;99.90
7155;DHT22;3619;53.784;10.440;2024-03-02T14:45:05;12.80;99.90
7155;DHT22;3619;53.784;10.440;2024-03-02T14:47:32;12.80;99.90
7155;DHT22;3619;53.784;10.440;2024-03-02T14:50:01;12.80;99.90
7155;DHT22;3619;53.784;10.440;2024-03-02T14:52:33;12.80;99.90
7155;DHT22;3619;53.784;10.440;2024-03-02T14:55:01;12.70;99.90
7155;DHT22;3619;53.784;10.440;2024-03-02T14:57:38;12.70;99.90
7155;DHT22;3619;53.784;10.440;2024-03-02T15:00:10;12.70;99.90
7155;DHT22;3619;53.784;10.440;2024-03-02T15:02:37;12.70;99.90
7155;DHT22;3619;53.784;10.440;2024-03-02T15:05:05;12.80;99.90
7155;DHT22;3619;53.784;10.440;2024-03-02T15:07:34;12.80;99.90
7155;DHT22;3619;53.784;10.440;2024-03-02T15:10:01;12.80;99.90
7155;DHT22;3619;53.784;10.440;2024-03-02T15:12:29;12.80;99.90
7155;DHT22;3619;53.784;10.440;2024-03-02T15:14:56;12.90;99.90
7155;DHT22;3619;53.784;10.440;2024-03-02T15:17:24;12.90;99.90
7155;DHT22;3619;53.784;10.440;2024-03-02T15:19:51;13.00;99.90
7155;DHT22;3619;53.784;10.440;2024-03-02T15:22:18;13.10;99.90
7155;DHT22;3619;53.784;10.440;2024-03-02T15:24:47;13.30;99.90
7155;DHT22;3619;53.784;10.440;2024-03-02T15:27:13;13.40;99.90
7155;DHT22;3619;53.784;10.440;2024-03-02T15:29:40;13.30;99.90
7155;DHT22;3619;53.784;10.440;2024-03-02T15:32:07;13.40;99.90
7155;DHT22;3619;53.784;10.440;2024-03-02T15:34:34;13.40;99.90
7155;DHT22;3619;53.784;10.440;2024-03-02T15:37:01;13.50;99.90
7155;DHT22;3619;53.784;10.440;2024-03-02T15:39:29;13.50;99.90
7155;DHT22;3619;53.784;10.440;2024-03-02T15:41:57;13.50;99.90
7155;DHT22;3619;53.784;10.440;2024-03-02T15:44:27;13.50;99.90
7155;DHT22;3619;53.784;10.440;2024-03-02T15:46:54;13.60;99.90
7155;DHT22;3619;53.784;10.440;2024-03-02T15:49:25;13.70;99.90
7155;DHT22;3619;53.784;10.440;2024-03-02T15:54:26;13.70;99.90
7155;DHT22;3619;53.784;10.440;2024-03-02T15:56:53;13.60;99.90
7155;DHT22;3619;53.784;10.440;2024-03-02T15:59:21;13.50;99.90
7155;DHT22;3619;53.784;10.440;2024-03-02T16:01:48;13.40;99.90
7155;DHT22;3619;53.784;10.440;2024-03-02T16:04:17;13.30;99.90
7155;DHT22;3619;53.784;10.440;2024-03-02T16:09:31;13.20;99.90
7155;DHT22;3619;53.784;10.440;2024-03-02T16:12:01;13.20;99.90
7155;DHT22;3619;53.784;10.440;2024-03-02T16:19:38;12.80;99.90
7155;DHT22;3619;53.784;10.440;2024-03-02T16:22:06;12.80;99.90
7155;DHT22;3619;53.784;10.440;2024-03-02T16:24:39;12.80;99.90
7155;DHT22;3619;53.784;10.440;2024-03-02T16:27:06;12.70;99.90
7155;DHT22;3619;53.784;10.440;2024-03-02T16:29:34;12.60;99.90
7155;DHT22;3619;53.784;10.440;2024-03-02T16:32:01;12.50;99.90
7155;DHT22;3619;53.784;10.440;2024-03-02T16:34:41;12.40;99.90
7155;DHT22;3619;53.784;10.440;2024-03-02T16:37:12;12.40;99.90
7155;DHT22;3619;53.784;10.440;2024-03-02T16:39:39;12.20;99.90
7155;DHT22;3619;53.784;10.440;2024-03-02T16:42:06;12.20;99.90
7155;DHT22;3619;53.784;10.440;2024-03-02T16:44:33;12.10;99.90
7155;DHT22;3619;53.784;10.440;2024-03-02T16:47:00;12.10;99.90
7155;DHT22;3619;53.784;10.440;2024-03-02T16:49:27;12.00;99.90
7155;DHT22;3619;53.784;10.440;2024-03-02T16:51:55;12.00;99.90
7155;DHT22;3619;53.784;10.440;2024-03-02T16:54:22;11.80;99.90
7155;DHT22;3619;53.784;10.440;2024-03-02T16:56:49;11.80;99.90
7155;DHT22;3619;53.784;10.440;2024-03-02T16:59:16;11.70;99.90
7155;DHT22;3619;53.784;10.440;2024-03-02T17:01:43;11.60;99.90
7155;DHT22;3619;53.784;10.440;2024-03-02T17:04:10;11.60;99.90
7155;DHT22;3619;53.784;10.440;2024-03-02T17:06:40;11.50;99.90
7155;DHT22;3619;53.784;10.440;2024-03-02T17:09:08;11.50;99.90
7155;DHT22;3619;53.784;10.440;2024-03-02T17:11:35;11.50;99.90
7155;DHT22;3619;53.784;10.440;2024-03-02T17:14:02;11.40;99.90
7155;DHT22;3619;53.784;10.440;2024-03-02T17:16:29;11.40;99.90
7155;DHT22;3619;53.784;10.440;2024-03-02T17:18:56;11.30;99.90